Home   Weather   USA   Boulder   Past weeks
Flag for USA

Past Weather in Boulder, Colorado, USA — Yesterday and Last 2 Weeks

Currently: 32 °F. Clear. (Weather station: Broomfield / Jeffco, USA). See more current weather

Past Weather in Boulder — Graph

°F

Boulder Temperature Yesterday

Maximum temperature yesterday: 55 °F (at 12:15 am)
Minimum temperature yesterday: 37 °F (at 11:15 pm)
Average temperature yesterday: 47 °F

High & Low Weather Summary for the Past Weeks

 TemperatureHumidityPressure
High82 °F (Oct 5, 3:45 pm)100% (Oct 15, 12:35 am)30.37 "Hg (Oct 15, 12:35 am)
Low32 °F (Oct 15, 12:35 am)12% (Oct 18, 2:45 pm)29.57 "Hg (Oct 13, 1:35 am)
Average52 °F43%30.00 "Hg
* Reported Oct 5 4:15 am — Oct 20 4:15 am, Boulder. Weather by CustomWeather, © 2021

Note: Actual official high and low records may vary slightly from our data, if they occured in-between our weather recording intervals... More about our weather records

Boulder Weather History for the Previous 24 Hours

Scroll right to see more
 ConditionsComfort  
Time TempWeatherWind HumidityBarometerVisibility
4:15 am
Wed, Oct 20
32 °FClear.3 mph100%30.17 "Hg10 mi
3:55 am34 °FClear.6 mph93%30.16 "Hg10 mi
3:35 am34 °FClear.3 mph93%30.16 "Hg10 mi
2:55 am32 °FClear.3 mph100%30.17 "Hg10 mi
2:35 am34 °FClear.6 mph93%30.16 "Hg10 mi
2:15 am34 °FClear.5 mph93%30.16 "Hg10 mi
1:55 am34 °FClear.7 mph93%30.16 "Hg10 mi
1:35 am34 °FClear.6 mph93%30.15 "Hg10 mi
1:15 am34 °FClear.6 mph93%30.15 "Hg10 mi
12:55 am36 °FClear.6 mph87%30.15 "Hg10 mi
12:35 am36 °FClear.9 mph87%30.14 "Hg10 mi
12:15 am36 °FClear.3 mph87%30.14 "Hg10 mi
11:55 pm
Tue, Oct 19
37 °FClear.3 mph81%30.13 "Hg10 mi
11:35 pm37 °FClear.5 mph81%30.12 "Hg10 mi
11:15 pm37 °FClear.6 mph81%30.13 "Hg10 mi
9:45 pm41 °FPassing clouds.7 mph70%30.09 "Hg10 mi
8:45 pm39 °FPassing clouds.9 mph75%30.08 "Hg10 mi
7:45 pm41 °FPassing clouds.3 mph70%30.08 "Hg10 mi
6:45 pm45 °FPassing clouds.8 mph61%30.06 "Hg10 mi
5:49 pm46 °FPartly sunny.8 mph57%30.03 "Hg10 mi
3:45 pm55 °FBroken clouds.21 mph36%29.93 "Hg10 mi
2:45 pm55 °FBroken clouds.9 mph36%29.91 "Hg10 mi
1:45 pm54 °FScattered clouds.5 mph38%29.91 "Hg10 mi
12:45 pm55 °FBroken clouds.6 mph44%29.91 "Hg10 mi
11:45 am54 °FBroken clouds.13 mph51%29.90 "Hg30 mi
11:18 am54 °FBroken clouds.No wind44%29.91 "Hg10 mi
10:45 am54 °FPartly sunny.5 mph41%29.90 "Hg10 mi
9:45 am52 °FPartly sunny.10 mph41%29.87 "Hg10 mi
8:47 am48 °FPartly sunny.8 mph46%29.85 "Hg10 mi
6:35 am48 °FClear.13 mph43%29.80 "Hg10 mi
6:15 am46 °FClear.9 mph46%29.78 "Hg10 mi
5:55 am46 °FClear.No wind46%29.77 "Hg10 mi
5:35 am45 °FClear.5 mph49%29.77 "Hg10 mi
5:15 am45 °FClear.No wind49%29.77 "Hg10 mi
Weather by CustomWeather, © 2021

See weather overview